sensor_id;sensor_type;location;lat;lon;timestamp;P1;durP1;ratioP1;P2;durP2;ratioP2
32523;SDS011;18965;52.242;20.886;2023-02-16T00:01:56;244.82;;;97.40;;
32523;SDS011;18965;52.242;20.886;2023-02-16T00:04:26;249.80;;;99.03;;
32523;SDS011;18965;52.242;20.886;2023-02-16T00:06:53;243.07;;;97.22;;
32523;SDS011;18965;52.242;20.886;2023-02-16T00:09:20;248.23;;;98.97;;
32523;SDS011;18965;52.242;20.886;2023-02-16T00:11:46;251.20;;;100.15;;
32523;SDS011;18965;52.242;20.886;2023-02-16T00:14:35;245.88;;;97.53;;
32523;SDS011;18965;52.242;20.886;2023-02-16T00:17:02;258.10;;;100.07;;
32523;SDS011;18965;52.242;20.886;2023-02-16T00:19:36;266.08;;;102.32;;
32523;SDS011;18965;52.242;20.886;2023-02-16T00:22:04;247.05;;;98.20;;
32523;SDS011;18965;52.242;20.886;2023-02-16T00:24:31;254.60;;;99.18;;
32523;SDS011;18965;52.242;20.886;2023-02-16T00:26:57;255.02;;;99.38;;
32523;SDS011;18965;52.242;20.886;2023-02-16T00:29:28;250.70;;;100.03;;
32523;SDS011;18965;52.242;20.886;2023-02-16T00:31:56;249.57;;;100.68;;
32523;SDS011;18965;52.242;20.886;2023-02-16T00:36:52;248.95;;;100.97;;
32523;SDS011;18965;52.242;20.886;2023-02-16T00:39:19;248.73;;;98.90;;
32523;SDS011;18965;52.242;20.886;2023-02-16T00:41:44;255.43;;;99.53;;
32523;SDS011;18965;52.242;20.886;2023-02-16T00:47:13;249.18;;;98.03;;
32523;SDS011;18965;52.242;20.886;2023-02-16T00:49:43;246.63;;;97.85;;
32523;SDS011;18965;52.242;20.886;2023-02-16T00:54:55;252.57;;;97.70;;
32523;SDS011;18965;52.242;20.886;2023-02-16T00:57:21;243.85;;;96.20;;
32523;SDS011;18965;52.242;20.886;2023-02-16T00:59:48;248.82;;;99.15;;
32523;SDS011;18965;52.242;20.886;2023-02-16T01:02:20;247.23;;;97.22;;
32523;SDS011;18965;52.242;20.886;2023-02-16T01:04:46;244.73;;;95.78;;
32523;SDS011;18965;52.242;20.886;2023-02-16T01:07:12;246.20;;;98.65;;
32523;SDS011;18965;52.242;20.886;2023-02-16T01:09:58;252.18;;;97.50;;
32523;SDS011;18965;52.242;20.886;2023-02-16T01:12:42;250.95;;;98.95;;
32523;SDS011;18965;52.242;20.886;2023-02-16T01:15:10;248.20;;;98.97;;
32523;SDS011;18965;52.242;20.886;2023-02-16T01:17:38;249.15;;;97.43;;
32523;SDS011;18965;52.242;20.886;2023-02-16T01:20:16;247.27;;;97.07;;
32523;SDS011;18965;52.242;20.886;2023-02-16T01:22:45;248.18;;;98.10;;
32523;SDS011;18965;52.242;20.886;2023-02-16T01:25:11;273.15;;;102.80;;
32523;SDS011;18965;52.242;20.886;2023-02-16T01:27:37;248.63;;;97.50;;
32523;SDS011;18965;52.242;20.886;2023-02-16T01:30:04;248.43;;;97.57;;
32523;SDS011;18965;52.242;20.886;2023-02-16T01:32:31;246.27;;;98.20;;
32523;SDS011;18965;52.242;20.886;2023-02-16T01:34:57;249.88;;;99.80;;
32523;SDS011;18965;52.242;20.886;2023-02-16T01:37:23;249.20;;;98.25;;
32523;SDS011;18965;52.242;20.886;2023-02-16T01:39:49;247.10;;;96.70;;
32523;SDS011;18965;52.242;20.886;2023-02-16T01:45:08;250.43;;;98.18;;
32523;SDS011;18965;52.242;20.886;2023-02-16T01:47:52;246.38;;;98.15;;
32523;SDS011;18965;52.242;20.886;2023-02-16T01:50:24;249.80;;;98.32;;
32523;SDS011;18965;52.242;20.886;2023-02-16T01:52:58;250.82;;;99.18;;
32523;SDS011;18965;52.242;20.886;2023-02-16T01:55:35;253.27;;;98.40;;
32523;SDS011;18965;52.242;20.886;2023-02-16T01:58:06;255.23;;;100.63;;
32523;SDS011;18965;52.242;20.886;2023-02-16T02:03:21;251.68;;;97.10;;
32523;SDS011;18965;52.242;20.886;2023-02-16T02:06:09;247.88;;;97.35;;
32523;SDS011;18965;52.242;20.886;2023-02-16T02:08:41;274.73;;;101.50;;
32523;SDS011;18965;52.242;20.886;2023-02-16T02:11:32;245.50;;;95.97;;
32523;SDS011;18965;52.242;20.886;2023-02-16T02:14:17;247.32;;;97.40;;
32523;SDS011;18965;52.242;20.886;2023-02-16T02:16:55;250.63;;;96.53;;
32523;SDS011;18965;52.242;20.886;2023-02-16T02:19:37;250.15;;;97.53;;
32523;SDS011;18965;52.242;20.886;2023-02-16T02:33:41;261.40;;;100.65;;
32523;SDS011;18965;52.242;20.886;2023-02-16T02:44:30;243.02;;;96.13;;
32523;SDS011;18965;52.242;20.886;2023-02-16T02:47:08;251.93;;;99.00;;
32523;SDS011;18965;52.242;20.886;2023-02-16T02:49:34;257.25;;;100.05;;
32523;SDS011;18965;52.242;20.886;2023-02-16T02:52:00;268.13;;;99.55;;
32523;SDS011;18965;52.242;20.886;2023-02-16T02:54:27;253.85;;;97.90;;
32523;SDS011;18965;52.242;20.886;2023-02-16T03:03:01;243.77;;;95.32;;
32523;SDS011;18965;52.242;20.886;2023-02-16T03:05:35;249.30;;;100.97;;
32523;SDS011;18965;52.242;20.886;2023-02-16T03:08:09;245.82;;;98.45;;
32523;SDS011;18965;52.242;20.886;2023-02-16T03:10:40;241.05;;;97.47;;
32523;SDS011;18965;52.242;20.886;2023-02-16T03:13:34;247.15;;;96.80;;
32523;SDS011;18965;52.242;20.886;2023-02-16T03:16:07;244.82;;;96.97;;
32523;SDS011;18965;52.242;20.886;2023-02-16T03:18:37;247.70;;;99.32;;
32523;SDS011;18965;52.242;20.886;2023-02-16T03:21:23;241.82;;;98.22;;
32523;SDS011;18965;52.242;20.886;2023-02-16T03:24:10;248.68;;;99.00;;
32523;SDS011;18965;52.242;20.886;2023-02-16T03:26:59;246.18;;;97.43;;
32523;SDS011;18965;52.242;20.886;2023-02-16T03:29:45;243.27;;;97.03;;
32523;SDS011;18965;52.242;20.886;2023-02-16T03:32:13;251.60;;;96.65;;
32523;SDS011;18965;52.242;20.886;2023-02-16T03:34:40;247.95;;;99.18;;
32523;SDS011;18965;52.242;20.886;2023-02-16T03:37:05;247.60;;;99.18;;
32523;SDS011;18965;52.242;20.886;2023-02-16T03:39:31;263.20;;;103.07;;
32523;SDS011;18965;52.242;20.886;2023-02-16T03:42:18;245.02;;;97.70;;
32523;SDS011;18965;52.242;20.886;2023-02-16T03:44:46;251.80;;;101.22;;
32523;SDS011;18965;52.242;20.886;2023-02-16T03:47:12;255.63;;;102.50;;
32523;SDS011;18965;52.242;20.886;2023-02-16T03:49:37;255.77;;;101.93;;
32523;SDS011;18965;52.242;20.886;2023-02-16T03:52:03;261.60;;;104.18;;
32523;SDS011;18965;52.242;20.886;2023-02-16T03:54:29;260.85;;;103.65;;
32523;SDS011;18965;52.242;20.886;2023-02-16T03:56:54;259.60;;;102.90;;
32523;SDS011;18965;52.242;20.886;2023-02-16T03:59:20;257.98;;;103.47;;
32523;SDS011;18965;52.242;20.886;2023-02-16T04:01:46;253.20;;;102.68;;
32523;SDS011;18965;52.242;20.886;2023-02-16T04:04:12;250.35;;;99.45;;
32523;SDS011;18965;52.242;20.886;2023-02-16T04:06:38;252.45;;;100.28;;
32523;SDS011;18965;52.242;20.886;2023-02-16T04:09:04;254.07;;;99.53;;
32523;SDS011;18965;52.242;20.886;2023-02-16T04:11:30;251.50;;;96.50;;
32523;SDS011;18965;52.242;20.886;2023-02-16T04:14:14;248.18;;;98.18;;
32523;SDS011;18965;52.242;20.886;2023-02-16T04:16:40;240.15;;;95.40;;
32523;SDS011;18965;52.242;20.886;2023-02-16T04:19:06;262.48;;;100.75;;
32523;SDS011;18965;52.242;20.886;2023-02-16T04:21:32;234.18;;;153.60;;
32523;SDS011;18965;52.242;20.886;2023-02-16T04:23:58;181.63;;;116.95;;
32523;SDS011;18965;52.242;20.886;2023-02-16T04:26:24;258.48;;;130.77;;
32523;SDS011;18965;52.242;20.886;2023-02-16T04:28:49;238.85;;;96.40;;
32523;SDS011;18965;52.242;20.886;2023-02-16T04:31:15;228.60;;;130.63;;
32523;SDS011;18965;52.242;20.886;2023-02-16T04:33:41;288.02;;;157.45;;
32523;SDS011;18965;52.242;20.886;2023-02-16T04:36:07;262.73;;;111.28;;
32523;SDS011;18965;52.242;20.886;2023-02-16T04:38:33;295.73;;;181.45;;
32523;SDS011;18965;52.242;20.886;2023-02-16T04:40:58;282.58;;;163.90;;
32523;SDS011;18965;52.242;20.886;2023-02-16T04:43:24;267.17;;;129.60;;
32523;SDS011;18965;52.242;20.886;2023-02-16T04:45:50;260.25;;;125.30;;
32523;SDS011;18965;52.242;20.886;2023-02-16T04:48:16;264.67;;;131.13;;
32523;SDS011;18965;52.242;20.886;2023-02-16T04:50:42;264.65;;;145.77;;
32523;SDS011;18965;52.242;20.886;2023-02-16T04:53:07;274.25;;;141.20;;
32523;SDS011;18965;52.242;20.886;2023-02-16T04:55:33;270.33;;;146.27;;
32523;SDS011;18965;52.242;20.886;2023-02-16T04:57:59;261.67;;;135.50;;
32523;SDS011;18965;52.242;20.886;2023-02-16T05:00:24;272.83;;;148.88;;
32523;SDS011;18965;52.242;20.886;2023-02-16T05:02:50;249.30;;;103.28;;
32523;SDS011;18965;52.242;20.886;2023-02-16T05:05:16;251.35;;;121.40;;
32523;SDS011;18965;52.242;20.886;2023-02-16T05:07:42;304.92;;;228.02;;
32523;SDS011;18965;52.242;20.886;2023-02-16T05:10:08;315.33;;;252.20;;
32523;SDS011;18965;52.242;20.886;2023-02-16T05:12:34;284.65;;;172.85;;
32523;SDS011;18965;52.242;20.886;2023-02-16T05:15:18;256.23;;;112.15;;
32523;SDS011;18965;52.242;20.886;2023-02-16T05:17:44;256.10;;;110.50;;
32523;SDS011;18965;52.242;20.886;2023-02-16T05:20:10;252.80;;;109.15;;
32523;SDS011;18965;52.242;20.886;2023-02-16T05:22:36;253.70;;;117.25;;
32523;SDS011;18965;52.242;20.886;2023-02-16T05:25:04;270.60;;;151.05;;
32523;SDS011;18965;52.242;20.886;2023-02-16T05:27:32;256.35;;;115.20;;
32523;SDS011;18965;52.242;20.886;2023-02-16T05:29:58;246.80;;;102.90;;
32523;SDS011;18965;52.242;20.886;2023-02-16T05:32:23;257.75;;;120.82;;
32523;SDS011;18965;52.242;20.886;2023-02-16T05:34:49;261.60;;;121.18;;
32523;SDS011;18965;52.242;20.886;2023-02-16T05:37:16;247.38;;;110.80;;
32523;SDS011;18965;52.242;20.886;2023-02-16T05:39:42;260.88;;;117.40;;
32523;SDS011;18965;52.242;20.886;2023-02-16T05:42:08;260.73;;;136.55;;
32523;SDS011;18965;52.242;20.886;2023-02-16T05:44:34;248.20;;;103.85;;
32523;SDS011;18965;52.242;20.886;2023-02-16T05:47:00;263.52;;;131.43;;
32523;SDS011;18965;52.242;20.886;2023-02-16T05:49:26;250.30;;;104.38;;
32523;SDS011;18965;52.242;20.886;2023-02-16T05:51:51;284.08;;;168.98;;
32523;SDS011;18965;52.242;20.886;2023-02-16T05:54:17;251.75;;;117.15;;
32523;SDS011;18965;52.242;20.886;2023-02-16T05:56:46;248.48;;;107.47;;
32523;SDS011;18965;52.242;20.886;2023-02-16T05:59:14;250.02;;;119.97;;
32523;SDS011;18965;52.242;20.886;2023-02-16T06:01:41;255.80;;;108.25;;
32523;SDS011;18965;52.242;20.886;2023-02-16T06:04:07;254.45;;;104.07;;
32523;SDS011;18965;52.242;20.886;2023-02-16T06:06:35;246.23;;;105.30;;
32523;SDS011;18965;52.242;20.886;2023-02-16T06:09:05;249.77;;;101.22;;
32523;SDS011;18965;52.242;20.886;2023-02-16T06:11:32;248.00;;;116.68;;
32523;SDS011;18965;52.242;20.886;2023-02-16T06:14:07;250.85;;;102.95;;
32523;SDS011;18965;52.242;20.886;2023-02-16T06:16:40;248.48;;;101.70;;
32523;SDS011;18965;52.242;20.886;2023-02-16T06:19:08;252.85;;;115.45;;
32523;SDS011;18965;52.242;20.886;2023-02-16T06:21:34;270.65;;;134.32;;
32523;SDS011;18965;52.242;20.886;2023-02-16T06:24:01;253.35;;;105.50;;
32523;SDS011;18965;52.242;20.886;2023-02-16T06:26:27;250.55;;;107.35;;
32523;SDS011;18965;52.242;20.886;2023-02-16T06:28:53;259.42;;;120.07;;
32523;SDS011;18965;52.242;20.886;2023-02-16T06:31:20;248.55;;;96.82;;
32523;SDS011;18965;52.242;20.886;2023-02-16T06:33:46;250.40;;;99.28;;
32523;SDS011;18965;52.242;20.886;2023-02-16T06:36:12;251.35;;;98.47;;
32523;SDS011;18965;52.242;20.886;2023-02-16T06:38:38;258.55;;;100.63;;
32523;SDS011;18965;52.242;20.886;2023-02-16T06:41:04;259.60;;;101.50;;
32523;SDS011;18965;52.242;20.886;2023-02-16T06:43:30;257.75;;;100.55;;
32523;SDS011;18965;52.242;20.886;2023-02-16T06:45:55;250.55;;;98.68;;
32523;SDS011;18965;52.242;20.886;2023-02-16T06:48:21;263.65;;;99.78;;
32523;SDS011;18965;52.242;20.886;2023-02-16T06:50:47;255.18;;;102.18;;
32523;SDS011;18965;52.242;20.886;2023-02-16T06:53:12;265.23;;;103.43;;
32523;SDS011;18965;52.242;20.886;2023-02-16T06:55:38;259.05;;;100.55;;
32523;SDS011;18965;52.242;20.886;2023-02-16T06:58:04;257.52;;;100.95;;
32523;SDS011;18965;52.242;20.886;2023-02-16T07:00:31;265.58;;;102.68;;
32523;SDS011;18965;52.242;20.886;2023-02-16T07:02:58;263.20;;;102.55;;
32523;SDS011;18965;52.242;20.886;2023-02-16T07:05:24;262.00;;;103.72;;
32523;SDS011;18965;52.242;20.886;2023-02-16T07:07:50;260.52;;;101.32;;
32523;SDS011;18965;52.242;20.886;2023-02-16T07:10:17;261.98;;;101.18;;
32523;SDS011;18965;52.242;20.886;2023-02-16T07:12:44;272.45;;;104.38;;
32523;SDS011;18965;52.242;20.886;2023-02-16T07:15:10;264.88;;;102.38;;
32523;SDS011;18965;52.242;20.886;2023-02-16T07:17:35;268.77;;;102.07;;
32523;SDS011;18965;52.242;20.886;2023-02-16T07:20:02;271.88;;;104.13;;
32523;SDS011;18965;52.242;20.886;2023-02-16T07:22:29;271.70;;;104.70;;
32523;SDS011;18965;52.242;20.886;2023-02-16T07:24:56;264.75;;;104.68;;
32523;SDS011;18965;52.242;20.886;2023-02-16T07:27:23;266.73;;;102.03;;
32523;SDS011;18965;52.242;20.886;2023-02-16T07:29:49;276.30;;;103.97;;
32523;SDS011;18965;52.242;20.886;2023-02-16T07:32:15;279.90;;;105.90;;
32523;SDS011;18965;52.242;20.886;2023-02-16T07:34:41;271.02;;;104.10;;
32523;SDS011;18965;52.242;20.886;2023-02-16T07:37:06;264.17;;;102.78;;
32523;SDS011;18965;52.242;20.886;2023-02-16T07:39:32;284.08;;;106.88;;
32523;SDS011;18965;52.242;20.886;2023-02-16T07:41:58;279.92;;;105.15;;
32523;SDS011;18965;52.242;20.886;2023-02-16T07:44:24;276.63;;;103.47;;
32523;SDS011;18965;52.242;20.886;2023-02-16T07:46:49;277.75;;;105.65;;
32523;SDS011;18965;52.242;20.886;2023-02-16T07:49:15;278.88;;;107.80;;
32523;SDS011;18965;52.242;20.886;2023-02-16T07:51:41;276.88;;;107.20;;
32523;SDS011;18965;52.242;20.886;2023-02-16T07:54:06;280.67;;;106.05;;
32523;SDS011;18965;52.242;20.886;2023-02-16T07:56:33;293.33;;;109.45;;
32523;SDS011;18965;52.242;20.886;2023-02-16T07:58:59;276.88;;;107.07;;
32523;SDS011;18965;52.242;20.886;2023-02-16T08:01:27;275.75;;;104.80;;
32523;SDS011;18965;52.242;20.886;2023-02-16T08:03:54;279.70;;;106.15;;
32523;SDS011;18965;52.242;20.886;2023-02-16T08:06:20;186.60;;;87.70;;
32523;SDS011;18965;52.242;20.886;2023-02-16T08:08:47;204.70;;;92.90;;
32523;SDS011;18965;52.242;20.886;2023-02-16T08:11:14;223.88;;;97.53;;
32523;SDS011;18965;52.242;20.886;2023-02-16T08:13:44;215.15;;;94.85;;
32523;SDS011;18965;52.242;20.886;2023-02-16T08:16:11;229.75;;;98.15;;
32523;SDS011;18965;52.242;20.886;2023-02-16T08:18:43;218.32;;;94.90;;
32523;SDS011;18965;52.242;20.886;2023-02-16T08:21:16;203.65;;;91.82;;
32523;SDS011;18965;52.242;20.886;2023-02-16T08:23:45;210.93;;;95.15;;
32523;SDS011;18965;52.242;20.886;2023-02-16T08:26:17;215.20;;;95.18;;
32523;SDS011;18965;52.242;20.886;2023-02-16T08:28:45;214.30;;;95.47;;
32523;SDS011;18965;52.242;20.886;2023-02-16T08:31:12;215.75;;;96.95;;
32523;SDS011;18965;52.242;20.886;2023-02-16T08:33:39;218.80;;;97.28;;
32523;SDS011;18965;52.242;20.886;2023-02-16T08:36:05;204.15;;;93.90;;
32523;SDS011;18965;52.242;20.886;2023-02-16T08:38:34;201.20;;;93.18;;
32523;SDS011;18965;52.242;20.886;2023-02-16T08:41:00;211.40;;;93.93;;
32523;SDS011;18965;52.242;20.886;2023-02-16T08:43:26;207.30;;;94.85;;
32523;SDS011;18965;52.242;20.886;2023-02-16T08:45:52;192.70;;;90.97;;
32523;SDS011;18965;52.242;20.886;2023-02-16T08:48:18;210.23;;;92.60;;
32523;SDS011;18965;52.242;20.886;2023-02-16T08:50:44;184.82;;;88.75;;
32523;SDS011;18965;52.242;20.886;2023-02-16T08:53:17;191.40;;;90.60;;
32523;SDS011;18965;52.242;20.886;2023-02-16T08:55:50;186.55;;;89.15;;
32523;SDS011;18965;52.242;20.886;2023-02-16T08:58:18;186.10;;;87.82;;
32523;SDS011;18965;52.242;20.886;2023-02-16T09:00:43;180.90;;;87.35;;
32523;SDS011;18965;52.242;20.886;2023-02-16T09:03:09;177.57;;;88.43;;
32523;SDS011;18965;52.242;20.886;2023-02-16T09:05:35;189.30;;;92.20;;
32523;SDS011;18965;52.242;20.886;2023-02-16T09:08:01;182.52;;;90.20;;
32523;SDS011;18965;52.242;20.886;2023-02-16T09:10:27;178.98;;;89.85;;
32523;SDS011;18965;52.242;20.886;2023-02-16T09:12:52;180.00;;;88.55;;
32523;SDS011;18965;52.242;20.886;2023-02-16T09:15:19;187.90;;;89.68;;
32523;SDS011;18965;52.242;20.886;2023-02-16T09:17:46;177.98;;;88.75;;
32523;SDS011;18965;52.242;20.886;2023-02-16T09:20:12;179.57;;;89.90;;
32523;SDS011;18965;52.242;20.886;2023-02-16T09:22:38;193.65;;;90.50;;
32523;SDS011;18965;52.242;20.886;2023-02-16T09:25:04;196.63;;;91.78;;
32523;SDS011;18965;52.242;20.886;2023-02-16T09:27:31;175.57;;;88.75;;
32523;SDS011;18965;52.242;20.886;2023-02-16T09:29:58;181.95;;;90.57;;
32523;SDS011;18965;52.242;20.886;2023-02-16T09:32:28;176.23;;;87.97;;
32523;SDS011;18965;52.242;20.886;2023-02-16T09:34:54;169.27;;;85.78;;
32523;SDS011;18965;52.242;20.886;2023-02-16T09:37:20;172.40;;;88.68;;
32523;SDS011;18965;52.242;20.886;2023-02-16T09:39:46;169.65;;;88.60;;
32523;SDS011;18965;52.242;20.886;2023-02-16T09:42:21;179.15;;;90.35;;
32523;SDS011;18965;52.242;20.886;2023-02-16T09:45:07;168.77;;;85.75;;
32523;SDS011;18965;52.242;20.886;2023-02-16T09:47:37;210.05;;;97.00;;
32523;SDS011;18965;52.242;20.886;2023-02-16T09:53:00;206.77;;;94.05;;
32523;SDS011;18965;52.242;20.886;2023-02-16T09:55:31;201.88;;;95.82;;
32523;SDS011;18965;52.242;20.886;2023-02-16T09:58:20;194.65;;;92.80;;
32523;SDS011;18965;52.242;20.886;2023-02-16T10:00:51;204.85;;;95.70;;
32523;SDS011;18965;52.242;20.886;2023-02-16T10:03:28;210.27;;;95.80;;
32523;SDS011;18965;52.242;20.886;2023-02-16T10:08:49;172.32;;;85.15;;
32523;SDS011;18965;52.242;20.886;2023-02-16T10:11:23;188.25;;;93.63;;
32523;SDS011;18965;52.242;20.886;2023-02-16T10:14:14;175.80;;;86.13;;
32523;SDS011;18965;52.242;20.886;2023-02-16T10:17:13;185.88;;;92.82;;
32523;SDS011;18965;52.242;20.886;2023-02-16T10:20:00;191.52;;;92.88;;
32523;SDS011;18965;52.242;20.886;2023-02-16T10:22:32;121.75;;;60.92;;
32523;SDS011;18965;52.242;20.886;2023-02-16T10:27:35;179.60;;;90.32;;
32523;SDS011;18965;52.242;20.886;2023-02-16T10:30:36;183.25;;;90.55;;
32523;SDS011;18965;52.242;20.886;2023-02-16T10:32:56;178.93;;;88.32;;
32523;SDS011;18965;52.242;20.886;2023-02-16T10:35:40;176.90;;;88.88;;
32523;SDS011;18965;52.242;20.886;2023-02-16T10:38:13;178.73;;;89.15;;
32523;SDS011;18965;52.242;20.886;2023-02-16T10:43:55;154.75;;;82.55;;
32523;SDS011;18965;52.242;20.886;2023-02-16T10:46:24;165.02;;;85.78;;
32523;SDS011;18965;52.242;20.886;2023-02-16T10:48:54;162.35;;;85.03;;
32523;SDS011;18965;52.242;20.886;2023-02-16T10:51:21;157.57;;;86.10;;
32523;SDS011;18965;52.242;20.886;2023-02-16T10:53:53;152.43;;;82.43;;
32523;SDS011;18965;52.242;20.886;2023-02-16T10:59:06;156.32;;;84.75;;
32523;SDS011;18965;52.242;20.886;2023-02-16T11:01:42;158.15;;;83.53;;
32523;SDS011;18965;52.242;20.886;2023-02-16T11:04:28;158.10;;;84.22;;
32523;SDS011;18965;52.242;20.886;2023-02-16T11:07:06;149.02;;;82.43;;
32523;SDS011;18965;52.242;20.886;2023-02-16T11:09:32;165.40;;;85.85;;
32523;SDS011;18965;52.242;20.886;2023-02-16T11:11:59;152.35;;;85.03;;
32523;SDS011;18965;52.242;20.886;2023-02-16T11:14:47;155.73;;;84.90;;
32523;SDS011;18965;52.242;20.886;2023-02-16T11:17:50;140.48;;;79.28;;
32523;SDS011;18965;52.242;20.886;2023-02-16T11:20:29;143.15;;;78.90;;
32523;SDS011;18965;52.242;20.886;2023-02-16T11:23:39;141.48;;;79.32;;
32523;SDS011;18965;52.242;20.886;2023-02-16T11:28:47;126.10;;;74.57;;
32523;SDS011;18965;52.242;20.886;2023-02-16T11:31:16;120.88;;;77.00;;
32523;SDS011;18965;52.242;20.886;2023-02-16T11:34:00;127.15;;;74.57;;
32523;SDS011;18965;52.242;20.886;2023-02-16T11:36:32;119.30;;;74.68;;
32523;SDS011;18965;52.242;20.886;2023-02-16T11:41:48;119.75;;;73.32;;
32523;SDS011;18965;52.242;20.886;2023-02-16T11:47:00;112.28;;;71.55;;
32523;SDS011;18965;52.242;20.886;2023-02-16T11:49:35;71.47;;;39.88;;
32523;SDS011;18965;52.242;20.886;2023-02-16T11:52:16;69.55;;;30.05;;
32523;SDS011;18965;52.242;20.886;2023-02-16T11:54:58;71.55;;;30.60;;
32523;SDS011;18965;52.242;20.886;2023-02-16T11:57:33;62.03;;;28.83;;
32523;SDS011;18965;52.242;20.886;2023-02-16T12:00:02;65.50;;;29.60;;
32523;SDS011;18965;52.242;20.886;2023-02-16T12:05:51;64.80;;;27.60;;
32523;SDS011;18965;52.242;20.886;2023-02-16T12:08:50;61.13;;;29.15;;
32523;SDS011;18965;52.242;20.886;2023-02-16T12:14:33;42.20;;;20.13;;
32523;SDS011;18965;52.242;20.886;2023-02-16T12:20:12;69.38;;;28.95;;
32523;SDS011;18965;52.242;20.886;2023-02-16T12:22:47;63.42;;;27.83;;
32523;SDS011;18965;52.242;20.886;2023-02-16T12:28:18;59.67;;;28.42;;
32523;SDS011;18965;52.242;20.886;2023-02-16T12:31:47;67.10;;;26.40;;
32523;SDS011;18965;52.242;20.886;2023-02-16T12:34:08;70.68;;;28.33;;
32523;SDS011;18965;52.242;20.886;2023-02-16T12:37:03;69.00;;;28.33;;
32523;SDS011;18965;52.242;20.886;2023-02-16T12:39:43;112.82;;;66.72;;
32523;SDS011;18965;52.242;20.886;2023-02-16T12:45:24;122.30;;;73.70;;
32523;SDS011;18965;52.242;20.886;2023-02-16T12:47:54;118.18;;;73.88;;
32523;SDS011;18965;52.242;20.886;2023-02-16T12:50:26;131.20;;;78.70;;
32523;SDS011;18965;52.242;20.886;2023-02-16T12:52:56;139.85;;;80.97;;
32523;SDS011;18965;52.242;20.886;2023-02-16T12:57:58;216.95;;;98.85;;
32523;SDS011;18965;52.242;20.886;2023-02-16T13:00:48;149.82;;;82.07;;
32523;SDS011;18965;52.242;20.886;2023-02-16T13:03:26;220.48;;;96.97;;
32523;SDS011;18965;52.242;20.886;2023-02-16T13:15:00;285.65;;;106.85;;
32523;SDS011;18965;52.242;20.886;2023-02-16T13:17:38;300.92;;;111.80;;
32523;SDS011;18965;52.242;20.886;2023-02-16T13:20:17;305.48;;;110.78;;
32523;SDS011;18965;52.242;20.886;2023-02-16T13:28:04;293.52;;;107.65;;
32523;SDS011;18965;52.242;20.886;2023-02-16T13:36:53;285.23;;;104.53;;
32523;SDS011;18965;52.242;20.886;2023-02-16T13:44:59;289.30;;;114.65;;
32523;SDS011;18965;52.242;20.886;2023-02-16T13:47:29;289.27;;;112.80;;
32523;SDS011;18965;52.242;20.886;2023-02-16T13:49:57;287.88;;;114.53;;
32523;SDS011;18965;52.242;20.886;2023-02-16T13:52:28;284.45;;;112.07;;
32523;SDS011;18965;52.242;20.886;2023-02-16T13:54:55;289.15;;;114.45;;
32523;SDS011;18965;52.242;20.886;2023-02-16T14:00:27;295.23;;;113.40;;
32523;SDS011;18965;52.242;20.886;2023-02-16T14:03:02;293.60;;;111.57;;
32523;SDS011;18965;52.242;20.886;2023-02-16T14:05:34;283.45;;;111.85;;
32523;SDS011;18965;52.242;20.886;2023-02-16T14:08:11;284.40;;;110.68;;
32523;SDS011;18965;52.242;20.886;2023-02-16T14:13:21;287.52;;;109.95;;
32523;SDS011;18965;52.242;20.886;2023-02-16T14:15:52;282.40;;;108.68;;
32523;SDS011;18965;52.242;20.886;2023-02-16T14:18:25;295.83;;;110.28;;
32523;SDS011;18965;52.242;20.886;2023-02-16T14:21:00;288.25;;;111.88;;
32523;SDS011;18965;52.242;20.886;2023-02-16T14:23:40;287.08;;;111.47;;
32523;SDS011;18965;52.242;20.886;2023-02-16T14:26:07;289.60;;;111.03;;
32523;SDS011;18965;52.242;20.886;2023-02-16T14:29:39;285.20;;;109.38;;
32523;SDS011;18965;52.242;20.886;2023-02-16T14:31:39;284.98;;;109.40;;
32523;SDS011;18965;52.242;20.886;2023-02-16T14:34:38;287.60;;;111.18;;
32523;SDS011;18965;52.242;20.886;2023-02-16T14:39:41;287.10;;;111.93;;
32523;SDS011;18965;52.242;20.886;2023-02-16T14:42:11;279.95;;;108.70;;
32523;SDS011;18965;52.242;20.886;2023-02-16T14:44:54;282.35;;;109.13;;
32523;SDS011;18965;52.242;20.886;2023-02-16T15:01:12;281.90;;;107.95;;
32523;SDS011;18965;52.242;20.886;2023-02-16T15:03:47;279.73;;;108.77;;
32523;SDS011;18965;52.242;20.886;2023-02-16T15:06:20;277.42;;;107.35;;
32523;SDS011;18965;52.242;20.886;2023-02-16T15:08:54;284.00;;;108.82;;
32523;SDS011;18965;52.242;20.886;2023-02-16T15:11:29;277.45;;;107.45;;
32523;SDS011;18965;52.242;20.886;2023-02-16T15:14:20;279.77;;;107.43;;
32523;SDS011;18965;52.242;20.886;2023-02-16T15:16:48;276.60;;;110.22;;
32523;SDS011;18965;52.242;20.886;2023-02-16T15:19:18;280.45;;;107.93;;
32523;SDS011;18965;52.242;20.886;2023-02-16T15:22:08;276.83;;;109.82;;
32523;SDS011;18965;52.242;20.886;2023-02-16T15:24:41;270.42;;;107.47;;
32523;SDS011;18965;52.242;20.886;2023-02-16T15:27:17;268.65;;;104.85;;
32523;SDS011;18965;52.242;20.886;2023-02-16T15:29:45;272.77;;;105.32;;
32523;SDS011;18965;52.242;20.886;2023-02-16T15:34:51;268.48;;;101.50;;
32523;SDS011;18965;52.242;20.886;2023-02-16T15:37:21;269.60;;;104.25;;
32523;SDS011;18965;52.242;20.886;2023-02-16T15:40:09;262.92;;;106.13;;
32523;SDS011;18965;52.242;20.886;2023-02-16T15:42:44;268.17;;;105.97;;
32523;SDS011;18965;52.242;20.886;2023-02-16T15:45:24;267.30;;;104.20;;
32523;SDS011;18965;52.242;20.886;2023-02-16T15:48:15;264.23;;;103.38;;
32523;SDS011;18965;52.242;20.886;2023-02-16T15:50:49;261.58;;;104.20;;
32523;SDS011;18965;52.242;20.886;2023-02-16T15:54:01;266.85;;;105.28;;
32523;SDS011;18965;52.242;20.886;2023-02-16T15:56:25;266.70;;;104.63;;
32523;SDS011;18965;52.242;20.886;2023-02-16T15:58:55;266.42;;;100.72;;
32523;SDS011;18965;52.242;20.886;2023-02-16T16:01:26;286.25;;;139.55;;
32523;SDS011;18965;52.242;20.886;2023-02-16T16:03:59;277.30;;;127.07;;
32523;SDS011;18965;52.242;20.886;2023-02-16T16:06:45;270.85;;;108.10;;
32523;SDS011;18965;52.242;20.886;2023-02-16T16:09:16;276.45;;;125.40;;
32523;SDS011;18965;52.242;20.886;2023-02-16T16:11:50;283.23;;;130.57;;
32523;SDS011;18965;52.242;20.886;2023-02-16T16:14:17;273.20;;;113.53;;
32523;SDS011;18965;52.242;20.886;2023-02-16T16:16:43;275.20;;;119.00;;
32523;SDS011;18965;52.242;20.886;2023-02-16T16:19:14;277.42;;;121.13;;
32523;SDS011;18965;52.242;20.886;2023-02-16T16:21:46;264.25;;;112.43;;
32523;SDS011;18965;52.242;20.886;2023-02-16T16:24:29;268.80;;;108.28;;
32523;SDS011;18965;52.242;20.886;2023-02-16T16:27:00;267.25;;;104.05;;